sensor_id;sensor_type;location;lat;lon;timestamp;temperature;humidity
75615;DHT22;64199;48.578;-4.520;2022-11-20T00:00:52;23.00;58.10
75615;DHT22;64199;48.578;-4.520;2022-11-20T00:03:18;23.00;58.10
75615;DHT22;64199;48.578;-4.520;2022-11-20T00:05:44;23.00;58.20
75615;DHT22;64199;48.578;-4.520;2022-11-20T00:08:10;23.00;58.20
75615;DHT22;64199;48.578;-4.520;2022-11-20T00:10:37;22.90;58.20
75615;DHT22;64199;48.578;-4.520;2022-11-20T00:13:03;22.90;58.20
75615;DHT22;64199;48.578;-4.520;2022-11-20T00:15:29;22.90;58.20
75615;DHT22;64199;48.578;-4.520;2022-11-20T00:17:55;22.90;58.20
75615;DHT22;64199;48.578;-4.520;2022-11-20T00:20:21;22.90;58.30
75615;DHT22;64199;48.578;-4.520;2022-11-20T00:22:47;22.90;58.40
75615;DHT22;64199;48.578;-4.520;2022-11-20T00:25:13;22.80;58.30
75615;DHT22;64199;48.578;-4.520;2022-11-20T00:27:39;22.80;58.40
75615;DHT22;64199;48.578;-4.520;2022-11-20T00:30:05;22.80;58.40
75615;DHT22;64199;48.578;-4.520;2022-11-20T00:32:31;22.70;58.30
75615;DHT22;64199;48.578;-4.520;2022-11-20T00:34:57;22.70;58.30
75615;DHT22;64199;48.578;-4.520;2022-11-20T00:37:23;22.70;58.40
75615;DHT22;64199;48.578;-4.520;2022-11-20T00:39:49;22.70;58.40
75615;DHT22;64199;48.578;-4.520;2022-11-20T00:42:15;22.70;58.50
75615;DHT22;64199;48.578;-4.520;2022-11-20T00:44:40;22.60;58.50
75615;DHT22;64199;48.578;-4.520;2022-11-20T00:47:06;22.60;58.60
75615;DHT22;64199;48.578;-4.520;2022-11-20T00:49:32;22.60;58.70
75615;DHT22;64199;48.578;-4.520;2022-11-20T00:51:58;22.60;58.70
75615;DHT22;64199;48.578;-4.520;2022-11-20T00:54:23;22.60;58.80
75615;DHT22;64199;48.578;-4.520;2022-11-20T00:56:49;22.50;58.80
75615;DHT22;64199;48.578;-4.520;2022-11-20T00:59:15;22.50;58.80
75615;DHT22;64199;48.578;-4.520;2022-11-20T01:01:41;22.50;58.80
75615;DHT22;64199;48.578;-4.520;2022-11-20T01:04:07;22.50;58.90
75615;DHT22;64199;48.578;-4.520;2022-11-20T01:06:35;22.50;58.90
75615;DHT22;64199;48.578;-4.520;2022-11-20T01:09:02;22.50;58.90
75615;DHT22;64199;48.578;-4.520;2022-11-20T01:11:32;22.40;58.90
75615;DHT22;64199;48.578;-4.520;2022-11-20T01:13:59;22.40;58.90
75615;DHT22;64199;48.578;-4.520;2022-11-20T01:16:27;22.30;58.90
75615;DHT22;64199;48.578;-4.520;2022-11-20T01:18:56;22.30;59.00
75615;DHT22;64199;48.578;-4.520;2022-11-20T01:21:31;22.30;59.00
75615;DHT22;64199;48.578;-4.520;2022-11-20T01:23:58;22.40;58.90
75615;DHT22;64199;48.578;-4.520;2022-11-20T01:26:29;22.40;58.90
75615;DHT22;64199;48.578;-4.520;2022-11-20T01:28:56;22.40;58.90
75615;DHT22;64199;48.578;-4.520;2022-11-20T01:31:28;22.40;58.90
75615;DHT22;64199;48.578;-4.520;2022-11-20T01:33:56;22.50;58.90
75615;DHT22;64199;48.578;-4.520;2022-11-20T01:36:23;22.50;58.90
75615;DHT22;64199;48.578;-4.520;2022-11-20T01:38:58;22.50;58.90
75615;DHT22;64199;48.578;-4.520;2022-11-20T01:41:26;22.50;59.00
75615;DHT22;64199;48.578;-4.520;2022-11-20T01:44:17;22.50;59.00
75615;DHT22;64199;48.578;-4.520;2022-11-20T01:46:56;22.50;59.00
75615;DHT22;64199;48.578;-4.520;2022-11-20T01:49:41;22.60;59.10
75615;DHT22;64199;48.578;-4.520;2022-11-20T01:52:16;22.60;59.10
75615;DHT22;64199;48.578;-4.520;2022-11-20T01:54:57;22.60;59.10
75615;DHT22;64199;48.578;-4.520;2022-11-20T01:57:28;22.70;59.20
75615;DHT22;64199;48.578;-4.520;2022-11-20T02:00:02;22.70;59.20
75615;DHT22;64199;48.578;-4.520;2022-11-20T02:02:28;22.70;59.20
75615;DHT22;64199;48.578;-4.520;2022-11-20T02:04:57;22.70;59.20
75615;DHT22;64199;48.578;-4.520;2022-11-20T02:07:26;22.80;59.30
75615;DHT22;64199;48.578;-4.520;2022-11-20T02:09:52;22.90;59.30
75615;DHT22;64199;48.578;-4.520;2022-11-20T02:12:18;22.90;59.30
75615;DHT22;64199;48.578;-4.520;2022-11-20T02:15:02;22.90;59.30
75615;DHT22;64199;48.578;-4.520;2022-11-20T02:17:28;22.90;59.30
75615;DHT22;64199;48.578;-4.520;2022-11-20T02:19:54;23.00;59.40
75615;DHT22;64199;48.578;-4.520;2022-11-20T02:22:31;23.00;59.30
75615;DHT22;64199;48.578;-4.520;2022-11-20T02:25:01;23.00;59.30
75615;DHT22;64199;48.578;-4.520;2022-11-20T02:27:28;23.10;59.30
75615;DHT22;64199;48.578;-4.520;2022-11-20T02:30:01;23.10;59.30
75615;DHT22;64199;48.578;-4.520;2022-11-20T02:32:28;23.10;59.20
75615;DHT22;64199;48.578;-4.520;2022-11-20T02:34:54;23.10;59.20
75615;DHT22;64199;48.578;-4.520;2022-11-20T02:37:21;23.20;59.20
75615;DHT22;64199;48.578;-4.520;2022-11-20T02:39:49;23.20;59.20
75615;DHT22;64199;48.578;-4.520;2022-11-20T02:42:17;23.20;59.10
75615;DHT22;64199;48.578;-4.520;2022-11-20T02:44:42;23.20;59.10
75615;DHT22;64199;48.578;-4.520;2022-11-20T02:47:08;23.30;59.10
75615;DHT22;64199;48.578;-4.520;2022-11-20T02:49:34;23.30;59.00
75615;DHT22;64199;48.578;-4.520;2022-11-20T02:52:00;23.30;59.00
75615;DHT22;64199;48.578;-4.520;2022-11-20T02:54:26;23.30;59.00
75615;DHT22;64199;48.578;-4.520;2022-11-20T02:56:52;23.30;59.00
75615;DHT22;64199;48.578;-4.520;2022-11-20T02:59:18;23.40;59.00
75615;DHT22;64199;48.578;-4.520;2022-11-20T03:01:44;23.40;59.00
75615;DHT22;64199;48.578;-4.520;2022-11-20T03:04:10;23.50;59.00
75615;DHT22;64199;48.578;-4.520;2022-11-20T03:06:36;23.40;59.00
75615;DHT22;64199;48.578;-4.520;2022-11-20T03:09:01;23.50;59.00
75615;DHT22;64199;48.578;-4.520;2022-11-20T03:11:28;23.50;59.00
75615;DHT22;64199;48.578;-4.520;2022-11-20T03:13:54;23.50;59.00
75615;DHT22;64199;48.578;-4.520;2022-11-20T03:16:22;23.60;59.00
75615;DHT22;64199;48.578;-4.520;2022-11-20T03:18:48;23.60;59.00
75615;DHT22;64199;48.578;-4.520;2022-11-20T03:21:15;23.60;59.00
75615;DHT22;64199;48.578;-4.520;2022-11-20T03:23:42;23.60;58.90
75615;DHT22;64199;48.578;-4.520;2022-11-20T03:26:15;23.70;58.90
75615;DHT22;64199;48.578;-4.520;2022-11-20T03:28:48;23.70;58.90
75615;DHT22;64199;48.578;-4.520;2022-11-20T03:31:16;23.70;58.90
75615;DHT22;64199;48.578;-4.520;2022-11-20T03:33:42;23.70;58.80
75615;DHT22;64199;48.578;-4.520;2022-11-20T03:36:11;23.70;58.70
75615;DHT22;64199;48.578;-4.520;2022-11-20T03:38:37;23.70;58.70
75615;DHT22;64199;48.578;-4.520;2022-11-20T03:41:07;23.80;58.80
75615;DHT22;64199;48.578;-4.520;2022-11-20T03:43:33;23.80;58.70
75615;DHT22;64199;48.578;-4.520;2022-11-20T03:46:00;23.80;58.70
75615;DHT22;64199;48.578;-4.520;2022-11-20T03:48:26;23.80;58.70
75615;DHT22;64199;48.578;-4.520;2022-11-20T03:50:53;23.80;58.70
75615;DHT22;64199;48.578;-4.520;2022-11-20T03:53:19;23.90;58.70
75615;DHT22;64199;48.578;-4.520;2022-11-20T03:55:50;23.90;58.70
75615;DHT22;64199;48.578;-4.520;2022-11-20T03:58:16;23.90;58.60
75615;DHT22;64199;48.578;-4.520;2022-11-20T04:00:43;23.90;58.60
75615;DHT22;64199;48.578;-4.520;2022-11-20T04:03:09;23.90;58.60
75615;DHT22;64199;48.578;-4.520;2022-11-20T04:05:35;24.00;58.70
75615;DHT22;64199;48.578;-4.520;2022-11-20T04:08:01;24.00;58.60
75615;DHT22;64199;48.578;-4.520;2022-11-20T04:10:27;24.00;58.60
75615;DHT22;64199;48.578;-4.520;2022-11-20T04:12:52;24.00;58.60
75615;DHT22;64199;48.578;-4.520;2022-11-20T04:15:18;24.10;58.60
75615;DHT22;64199;48.578;-4.520;2022-11-20T04:17:44;24.00;58.50
75615;DHT22;64199;48.578;-4.520;2022-11-20T04:20:10;24.10;58.50
75615;DHT22;64199;48.578;-4.520;2022-11-20T04:22:36;24.00;58.30
75615;DHT22;64199;48.578;-4.520;2022-11-20T04:25:02;24.00;58.30
75615;DHT22;64199;48.578;-4.520;2022-11-20T04:27:28;23.90;58.20
75615;DHT22;64199;48.578;-4.520;2022-11-20T04:29:54;23.90;58.30
75615;DHT22;64199;48.578;-4.520;2022-11-20T04:32:19;23.90;58.30
75615;DHT22;64199;48.578;-4.520;2022-11-20T04:34:45;23.90;58.90
75615;DHT22;64199;48.578;-4.520;2022-11-20T04:37:11;23.80;58.30
75615;DHT22;64199;48.578;-4.520;2022-11-20T04:39:37;23.80;58.30
75615;DHT22;64199;48.578;-4.520;2022-11-20T04:42:03;23.80;58.40
75615;DHT22;64199;48.578;-4.520;2022-11-20T04:44:47;23.70;58.40
75615;DHT22;64199;48.578;-4.520;2022-11-20T04:47:13;23.70;58.50
75615;DHT22;64199;48.578;-4.520;2022-11-20T04:49:39;23.60;58.50
75615;DHT22;64199;48.578;-4.520;2022-11-20T04:52:04;23.60;58.40
75615;DHT22;64199;48.578;-4.520;2022-11-20T04:54:30;23.60;58.40
75615;DHT22;64199;48.578;-4.520;2022-11-20T04:56:56;23.60;58.40
75615;DHT22;64199;48.578;-4.520;2022-11-20T04:59:22;23.50;58.40
75615;DHT22;64199;48.578;-4.520;2022-11-20T05:01:48;23.50;58.40
75615;DHT22;64199;48.578;-4.520;2022-11-20T05:04:14;23.50;58.40
75615;DHT22;64199;48.578;-4.520;2022-11-20T05:06:39;23.50;58.40
75615;DHT22;64199;48.578;-4.520;2022-11-20T05:09:05;23.40;58.40
75615;DHT22;64199;48.578;-4.520;2022-11-20T05:11:32;23.40;58.60
75615;DHT22;64199;48.578;-4.520;2022-11-20T05:13:59;23.30;58.70
75615;DHT22;64199;48.578;-4.520;2022-11-20T05:16:25;23.30;58.80
75615;DHT22;64199;48.578;-4.520;2022-11-20T05:18:52;23.20;58.90
75615;DHT22;64199;48.578;-4.520;2022-11-20T05:21:18;23.20;58.90
75615;DHT22;64199;48.578;-4.520;2022-11-20T05:23:45;23.10;58.90
75615;DHT22;64199;48.578;-4.520;2022-11-20T05:26:19;23.10;59.00
75615;DHT22;64199;48.578;-4.520;2022-11-20T05:28:47;23.10;59.00
75615;DHT22;64199;48.578;-4.520;2022-11-20T05:31:18;23.10;59.10
75615;DHT22;64199;48.578;-4.520;2022-11-20T05:33:45;23.00;59.00
75615;DHT22;64199;48.578;-4.520;2022-11-20T05:36:13;23.00;59.20
75615;DHT22;64199;48.578;-4.520;2022-11-20T05:38:39;23.00;59.20
75615;DHT22;64199;48.578;-4.520;2022-11-20T05:41:07;22.90;59.20
75615;DHT22;64199;48.578;-4.520;2022-11-20T05:43:34;22.90;59.30
75615;DHT22;64199;48.578;-4.520;2022-11-20T05:46:00;22.90;59.30
75615;DHT22;64199;48.578;-4.520;2022-11-20T05:48:26;22.80;59.40
75615;DHT22;64199;48.578;-4.520;2022-11-20T05:50:52;22.80;59.50
75615;DHT22;64199;48.578;-4.520;2022-11-20T05:53:17;22.70;59.50
75615;DHT22;64199;48.578;-4.520;2022-11-20T05:55:43;22.80;59.60
75615;DHT22;64199;48.578;-4.520;2022-11-20T05:58:09;22.80;59.70
75615;DHT22;64199;48.578;-4.520;2022-11-20T06:00:35;22.70;59.70
75615;DHT22;64199;48.578;-4.520;2022-11-20T06:03:02;22.70;59.80
75615;DHT22;64199;48.578;-4.520;2022-11-20T06:05:28;22.60;59.70
75615;DHT22;64199;48.578;-4.520;2022-11-20T06:07:53;22.60;59.80
75615;DHT22;64199;48.578;-4.520;2022-11-20T06:10:19;22.60;59.80
75615;DHT22;64199;48.578;-4.520;2022-11-20T06:12:45;22.60;59.90
75615;DHT22;64199;48.578;-4.520;2022-11-20T06:15:11;22.60;60.00
75615;DHT22;64199;48.578;-4.520;2022-11-20T06:17:37;22.50;60.00
75615;DHT22;64199;48.578;-4.520;2022-11-20T06:20:03;22.40;60.00
75615;DHT22;64199;48.578;-4.520;2022-11-20T06:22:29;22.40;59.90
75615;DHT22;64199;48.578;-4.520;2022-11-20T06:24:54;22.40;60.00
75615;DHT22;64199;48.578;-4.520;2022-11-20T06:27:20;22.40;59.90
75615;DHT22;64199;48.578;-4.520;2022-11-20T06:29:46;22.40;59.90
75615;DHT22;64199;48.578;-4.520;2022-11-20T06:32:12;22.40;59.90
75615;DHT22;64199;48.578;-4.520;2022-11-20T06:34:37;22.30;59.90
75615;DHT22;64199;48.578;-4.520;2022-11-20T06:37:03;22.30;59.90
75615;DHT22;64199;48.578;-4.520;2022-11-20T06:39:29;22.30;59.90
75615;DHT22;64199;48.578;-4.520;2022-11-20T06:41:55;22.30;60.00
75615;DHT22;64199;48.578;-4.520;2022-11-20T06:44:21;22.30;60.00
75615;DHT22;64199;48.578;-4.520;2022-11-20T06:46:47;22.20;59.90
75615;DHT22;64199;48.578;-4.520;2022-11-20T06:49:12;22.20;59.90
75615;DHT22;64199;48.578;-4.520;2022-11-20T06:51:38;22.20;59.80
75615;DHT22;64199;48.578;-4.520;2022-11-20T06:54:04;22.30;59.80
75615;DHT22;64199;48.578;-4.520;2022-11-20T06:56:30;22.20;59.70
75615;DHT22;64199;48.578;-4.520;2022-11-20T06:58:56;22.30;59.60
75615;DHT22;64199;48.578;-4.520;2022-11-20T07:01:21;22.30;59.60
75615;DHT22;64199;48.578;-4.520;2022-11-20T07:03:49;22.30;59.60
75615;DHT22;64199;48.578;-4.520;2022-11-20T07:06:16;22.40;59.60
75615;DHT22;64199;48.578;-4.520;2022-11-20T07:08:42;22.40;59.60
75615;DHT22;64199;48.578;-4.520;2022-11-20T07:11:08;22.40;59.60
75615;DHT22;64199;48.578;-4.520;2022-11-20T07:13:34;22.40;59.60
75615;DHT22;64199;48.578;-4.520;2022-11-20T07:16:02;22.50;59.70
75615;DHT22;64199;48.578;-4.520;2022-11-20T07:18:28;22.50;59.70
75615;DHT22;64199;48.578;-4.520;2022-11-20T07:20:54;22.50;59.70
75615;DHT22;64199;48.578;-4.520;2022-11-20T07:23:20;22.50;59.70
75615;DHT22;64199;48.578;-4.520;2022-11-20T07:25:45;22.50;59.70
75615;DHT22;64199;48.578;-4.520;2022-11-20T07:28:11;22.60;59.80
75615;DHT22;64199;48.578;-4.520;2022-11-20T07:30:37;22.60;59.80
75615;DHT22;64199;48.578;-4.520;2022-11-20T07:33:03;22.60;59.80
75615;DHT22;64199;48.578;-4.520;2022-11-20T07:35:29;22.70;59.80
75615;DHT22;64199;48.578;-4.520;2022-11-20T07:37:55;22.70;59.80
75615;DHT22;64199;48.578;-4.520;2022-11-20T07:40:20;22.70;59.90
75615;DHT22;64199;48.578;-4.520;2022-11-20T07:42:54;22.70;59.90
75615;DHT22;64199;48.578;-4.520;2022-11-20T07:45:21;22.80;60.00
75615;DHT22;64199;48.578;-4.520;2022-11-20T07:47:48;22.80;59.90
75615;DHT22;64199;48.578;-4.520;2022-11-20T07:50:14;22.80;59.90
75615;DHT22;64199;48.578;-4.520;2022-11-20T07:52:40;22.80;59.90
75615;DHT22;64199;48.578;-4.520;2022-11-20T07:55:06;22.90;60.00
75615;DHT22;64199;48.578;-4.520;2022-11-20T07:57:33;22.90;60.00
75615;DHT22;64199;48.578;-4.520;2022-11-20T07:59:58;22.90;60.00
75615;DHT22;64199;48.578;-4.520;2022-11-20T08:02:24;22.90;60.00
75615;DHT22;64199;48.578;-4.520;2022-11-20T08:04:50;23.00;60.00
75615;DHT22;64199;48.578;-4.520;2022-11-20T08:07:16;23.00;60.10
75615;DHT22;64199;48.578;-4.520;2022-11-20T08:09:42;23.00;60.10
75615;DHT22;64199;48.578;-4.520;2022-11-20T08:12:08;23.00;60.20
75615;DHT22;64199;48.578;-4.520;2022-11-20T08:15:00;23.10;60.40
75615;DHT22;64199;48.578;-4.520;2022-11-20T08:17:25;23.10;60.30
75615;DHT22;64199;48.578;-4.520;2022-11-20T08:19:51;23.10;60.30
75615;DHT22;64199;48.578;-4.520;2022-11-20T08:22:17;23.20;60.30
75615;DHT22;64199;48.578;-4.520;2022-11-20T08:24:43;23.20;60.20
75615;DHT22;64199;48.578;-4.520;2022-11-20T08:27:08;23.20;60.20
75615;DHT22;64199;48.578;-4.520;2022-11-20T08:29:34;23.20;60.10
75615;DHT22;64199;48.578;-4.520;2022-11-20T08:32:00;23.20;60.40
75615;DHT22;64199;48.578;-4.520;2022-11-20T08:34:26;23.30;60.10
75615;DHT22;64199;48.578;-4.520;2022-11-20T08:36:52;23.30;60.00
75615;DHT22;64199;48.578;-4.520;2022-11-20T08:39:17;23.30;60.00
75615;DHT22;64199;48.578;-4.520;2022-11-20T08:41:43;23.30;59.90
75615;DHT22;64199;48.578;-4.520;2022-11-20T08:44:09;23.40;60.60
75615;DHT22;64199;48.578;-4.520;2022-11-20T08:46:40;23.30;59.80
75615;DHT22;64199;48.578;-4.520;2022-11-20T08:49:08;23.40;59.80
75615;DHT22;64199;48.578;-4.520;2022-11-20T08:51:35;23.40;59.80
75615;DHT22;64199;48.578;-4.520;2022-11-20T08:54:01;23.40;59.90
75615;DHT22;64199;48.578;-4.520;2022-11-20T08:56:27;23.40;60.20
75615;DHT22;64199;48.578;-4.520;2022-11-20T08:58:53;23.40;60.20
75615;DHT22;64199;48.578;-4.520;2022-11-20T09:01:21;23.40;60.20
75615;DHT22;64199;48.578;-4.520;2022-11-20T09:03:47;23.50;60.20
75615;DHT22;64199;48.578;-4.520;2022-11-20T09:06:13;23.50;60.10
75615;DHT22;64199;48.578;-4.520;2022-11-20T09:08:39;23.50;60.10
75615;DHT22;64199;48.578;-4.520;2022-11-20T09:11:06;23.60;60.10
75615;DHT22;64199;48.578;-4.520;2022-11-20T09:13:33;23.60;60.10
75615;DHT22;64199;48.578;-4.520;2022-11-20T09:16:08;23.60;60.10
75615;DHT22;64199;48.578;-4.520;2022-11-20T09:18:35;23.60;60.20
75615;DHT22;64199;48.578;-4.520;2022-11-20T09:21:10;23.60;60.10
75615;DHT22;64199;48.578;-4.520;2022-11-20T09:23:38;23.60;60.10
75615;DHT22;64199;48.578;-4.520;2022-11-20T09:26:05;23.70;60.10
75615;DHT22;64199;48.578;-4.520;2022-11-20T09:28:32;23.70;60.00
75615;DHT22;64199;48.578;-4.520;2022-11-20T09:30:58;23.70;59.90
75615;DHT22;64199;48.578;-4.520;2022-11-20T09:33:24;23.70;59.80
75615;DHT22;64199;48.578;-4.520;2022-11-20T09:35:50;23.70;59.80
75615;DHT22;64199;48.578;-4.520;2022-11-20T09:38:16;23.80;59.80
75615;DHT22;64199;48.578;-4.520;2022-11-20T09:41:04;23.80;59.70
75615;DHT22;64199;48.578;-4.520;2022-11-20T09:43:56;23.80;59.70
75615;DHT22;64199;48.578;-4.520;2022-11-20T09:46:40;23.80;59.70
75615;DHT22;64199;48.578;-4.520;2022-11-20T09:49:23;23.80;59.60
75615;DHT22;64199;48.578;-4.520;2022-11-20T09:51:58;23.90;59.80
75615;DHT22;64199;48.578;-4.520;2022-11-20T09:54:37;23.90;59.80
75615;DHT22;64199;48.578;-4.520;2022-11-20T09:57:14;23.90;59.90
75615;DHT22;64199;48.578;-4.520;2022-11-20T09:59:46;23.90;59.80
75615;DHT22;64199;48.578;-4.520;2022-11-20T10:05:02;23.90;59.70
75615;DHT22;64199;48.578;-4.520;2022-11-20T10:07:44;24.00;59.80
75615;DHT22;64199;48.578;-4.520;2022-11-20T10:13:23;24.00;59.70
75615;DHT22;64199;48.578;-4.520;2022-11-20T10:16:06;24.10;59.70
75615;DHT22;64199;48.578;-4.520;2022-11-20T10:19:03;24.10;59.70
75615;DHT22;64199;48.578;-4.520;2022-11-20T10:29:42;24.00;59.50
75615;DHT22;64199;48.578;-4.520;2022-11-20T10:32:15;23.90;59.40
75615;DHT22;64199;48.578;-4.520;2022-11-20T10:34:49;23.90;59.40
75615;DHT22;64199;48.578;-4.520;2022-11-20T10:37:27;23.90;59.40
75615;DHT22;64199;48.578;-4.520;2022-11-20T10:40:05;23.90;59.30
75615;DHT22;64199;48.578;-4.520;2022-11-20T10:42:51;23.90;59.30
75615;DHT22;64199;48.578;-4.520;2022-11-20T10:48:07;23.80;59.10
75615;DHT22;64199;48.578;-4.520;2022-11-20T10:50:40;23.70;59.10
75615;DHT22;64199;48.578;-4.520;2022-11-20T10:56:00;23.60;58.90
75615;DHT22;64199;48.578;-4.520;2022-11-20T10:58:33;23.60;58.90
75615;DHT22;64199;48.578;-4.520;2022-11-20T11:01:11;23.60;58.90
75615;DHT22;64199;48.578;-4.520;2022-11-20T11:03:38;23.50;58.80
75615;DHT22;64199;48.578;-4.520;2022-11-20T11:06:27;23.40;58.70
75615;DHT22;64199;48.578;-4.520;2022-11-20T11:08:58;23.40;58.60
75615;DHT22;64199;48.578;-4.520;2022-11-20T11:11:30;23.40;58.60
75615;DHT22;64199;48.578;-4.520;2022-11-20T11:14:08;23.40;58.50
75615;DHT22;64199;48.578;-4.520;2022-11-20T11:16:34;23.30;59.20
75615;DHT22;64199;48.578;-4.520;2022-11-20T11:19:04;23.30;58.70
75615;DHT22;64199;48.578;-4.520;2022-11-20T11:21:30;23.30;58.50
75615;DHT22;64199;48.578;-4.520;2022-11-20T11:24:02;23.30;58.50
75615;DHT22;64199;48.578;-4.520;2022-11-20T11:26:28;23.20;58.40
75615;DHT22;64199;48.578;-4.520;2022-11-20T11:29:02;23.20;58.50
75615;DHT22;64199;48.578;-4.520;2022-11-20T11:31:34;23.20;58.50
75615;DHT22;64199;48.578;-4.520;2022-11-20T11:34:07;23.20;58.50
75615;DHT22;64199;48.578;-4.520;2022-11-20T11:36:34;23.20;58.50
75615;DHT22;64199;48.578;-4.520;2022-11-20T11:39:02;23.20;58.50
75615;DHT22;64199;48.578;-4.520;2022-11-20T11:41:32;23.20;58.50
75615;DHT22;64199;48.578;-4.520;2022-11-20T11:44:20;23.20;58.50
75615;DHT22;64199;48.578;-4.520;2022-11-20T11:47:09;23.10;58.40
75615;DHT22;64199;48.578;-4.520;2022-11-20T11:49:36;23.10;58.40
75615;DHT22;64199;48.578;-4.520;2022-11-20T11:52:08;23.10;58.50
75615;DHT22;64199;48.578;-4.520;2022-11-20T11:54:52;23.10;58.50
75615;DHT22;64199;48.578;-4.520;2022-11-20T12:00:16;23.10;58.60
75615;DHT22;64199;48.578;-4.520;2022-11-20T12:05:23;23.00;58.60
75615;DHT22;64199;48.578;-4.520;2022-11-20T12:08:02;23.00;58.60
75615;DHT22;64199;48.578;-4.520;2022-11-20T12:10:50;23.00;58.60
75615;DHT22;64199;48.578;-4.520;2022-11-20T12:13:25;23.00;58.60
75615;DHT22;64199;48.578;-4.520;2022-11-20T12:15:51;23.10;58.70
75615;DHT22;64199;48.578;-4.520;2022-11-20T12:18:20;23.00;58.70
75615;DHT22;64199;48.578;-4.520;2022-11-20T12:24:06;23.00;58.70
75615;DHT22;64199;48.578;-4.520;2022-11-20T12:29:38;23.00;58.70
75615;DHT22;64199;48.578;-4.520;2022-11-20T12:43:29;22.90;58.80
75615;DHT22;64199;48.578;-4.520;2022-11-20T12:46:21;22.90;58.90
75615;DHT22;64199;48.578;-4.520;2022-11-20T12:54:27;22.90;58.90
75615;DHT22;64199;48.578;-4.520;2022-11-20T12:59:52;22.80;59.50
75615;DHT22;64199;48.578;-4.520;2022-11-20T13:02:26;22.80;58.90
75615;DHT22;64199;48.578;-4.520;2022-11-20T13:08:01;22.80;58.90
75615;DHT22;64199;48.578;-4.520;2022-11-20T13:10:46;22.80;58.90
75615;DHT22;64199;48.578;-4.520;2022-11-20T13:16:19;22.80;58.90
75615;DHT22;64199;48.578;-4.520;2022-11-20T13:18:47;22.80;58.90
75615;DHT22;64199;48.578;-4.520;2022-11-20T13:21:18;22.70;58.90
75615;DHT22;64199;48.578;-4.520;2022-11-20T13:23:44;22.70;58.90
75615;DHT22;64199;48.578;-4.520;2022-11-20T13:26:22;22.70;58.90
75615;DHT22;64199;48.578;-4.520;2022-11-20T13:29:11;22.70;58.90
75615;DHT22;64199;48.578;-4.520;2022-11-20T13:31:41;22.60;58.80
75615;DHT22;64199;48.578;-4.520;2022-11-20T13:34:14;22.70;58.90
75615;DHT22;64199;48.578;-4.520;2022-11-20T13:36:52;22.70;59.00
75615;DHT22;64199;48.578;-4.520;2022-11-20T13:41:57;22.60;59.00
75615;DHT22;64199;48.578;-4.520;2022-11-20T13:44:45;22.60;59.10
75615;DHT22;64199;48.578;-4.520;2022-11-20T13:47:26;22.60;59.10
75615;DHT22;64199;48.578;-4.520;2022-11-20T13:49:53;22.60;59.10
75615;DHT22;64199;48.578;-4.520;2022-11-20T13:55:40;22.60;59.10
75615;DHT22;64199;48.578;-4.520;2022-11-20T14:01:20;22.60;59.20
75615;DHT22;64199;48.578;-4.520;2022-11-20T14:03:47;22.50;59.20
75615;DHT22;64199;48.578;-4.520;2022-11-20T14:06:32;22.50;59.20
75615;DHT22;64199;48.578;-4.520;2022-11-20T14:09:00;22.50;59.30
75615;DHT22;64199;48.578;-4.520;2022-11-20T14:11:28;22.40;59.20
75615;DHT22;64199;48.578;-4.520;2022-11-20T14:16:27;22.50;59.40
75615;DHT22;64199;48.578;-4.520;2022-11-20T14:18:54;22.40;59.40
75615;DHT22;64199;48.578;-4.520;2022-11-20T14:21:29;22.40;59.50
75615;DHT22;64199;48.578;-4.520;2022-11-20T14:24:04;22.40;59.50
75615;DHT22;64199;48.578;-4.520;2022-11-20T14:26:31;22.40;59.50
75615;DHT22;64199;48.578;-4.520;2022-11-20T14:28:58;22.40;59.60
75615;DHT22;64199;48.578;-4.520;2022-11-20T14:31:26;22.40;59.60
75615;DHT22;64199;48.578;-4.520;2022-11-20T14:33:54;22.40;59.60
75615;DHT22;64199;48.578;-4.520;2022-11-20T14:36:22;22.30;59.70
75615;DHT22;64199;48.578;-4.520;2022-11-20T14:38:50;22.30;59.70
75615;DHT22;64199;48.578;-4.520;2022-11-20T14:41:25;22.30;59.80
75615;DHT22;64199;48.578;-4.520;2022-11-20T14:43:56;22.30;59.80
75615;DHT22;64199;48.578;-4.520;2022-11-20T14:46:23;22.30;59.90
75615;DHT22;64199;48.578;-4.520;2022-11-20T14:48:55;22.30;59.90
75615;DHT22;64199;48.578;-4.520;2022-11-20T14:51:35;22.30;60.10
75615;DHT22;64199;48.578;-4.520;2022-11-20T14:54:19;22.30;60.40
75615;DHT22;64199;48.578;-4.520;2022-11-20T14:57:03;22.40;60.30
75615;DHT22;64199;48.578;-4.520;2022-11-20T14:59:33;22.40;60.30
75615;DHT22;64199;48.578;-4.520;2022-11-20T15:02:09;22.40;60.30
75615;DHT22;64199;48.578;-4.520;2022-11-20T15:04:56;22.40;60.40
75615;DHT22;64199;48.578;-4.520;2022-11-20T15:07:32;22.40;60.70
75615;DHT22;64199;48.578;-4.520;2022-11-20T15:10:04;22.50;60.60
75615;DHT22;64199;48.578;-4.520;2022-11-20T15:12:31;22.50;60.70
75615;DHT22;64199;48.578;-4.520;2022-11-20T15:14:58;22.60;60.90
75615;DHT22;64199;48.578;-4.520;2022-11-20T15:17:24;22.60;60.90
75615;DHT22;64199;48.578;-4.520;2022-11-20T15:19:51;22.60;60.90
75615;DHT22;64199;48.578;-4.520;2022-11-20T15:22:17;22.60;60.90
75615;DHT22;64199;48.578;-4.520;2022-11-20T15:24:42;22.70;61.00
75615;DHT22;64199;48.578;-4.520;2022-11-20T15:27:10;22.80;61.00
75615;DHT22;64199;48.578;-4.520;2022-11-20T15:29:35;22.80;60.90
75615;DHT22;64199;48.578;-4.520;2022-11-20T15:32:01;22.80;60.70
75615;DHT22;64199;48.578;-4.520;2022-11-20T15:34:27;22.80;60.60
75615;DHT22;64199;48.578;-4.520;2022-11-20T15:36:53;22.90;60.60
75615;DHT22;64199;48.578;-4.520;2022-11-20T15:39:20;22.90;60.60
75615;DHT22;64199;48.578;-4.520;2022-11-20T15:41:46;23.00;60.50
75615;DHT22;64199;48.578;-4.520;2022-11-20T15:44:12;23.00;60.50
75615;DHT22;64199;48.578;-4.520;2022-11-20T15:46:42;23.00;60.40
75615;DHT22;64199;48.578;-4.520;2022-11-20T15:49:14;23.10;60.50
75615;DHT22;64199;48.578;-4.520;2022-11-20T15:51:43;23.10;60.40
75615;DHT22;64199;48.578;-4.520;2022-11-20T15:54:17;23.10;60.40
75615;DHT22;64199;48.578;-4.520;2022-11-20T15:56:46;23.20;60.30
75615;DHT22;64199;48.578;-4.520;2022-11-20T15:59:12;23.20;60.30
75615;DHT22;64199;48.578;-4.520;2022-11-20T16:01:40;23.20;60.10
75615;DHT22;64199;48.578;-4.520;2022-11-20T16:04:14;23.30;60.00
75615;DHT22;64199;48.578;-4.520;2022-11-20T16:06:40;23.30;60.00
75615;DHT22;64199;48.578;-4.520;2022-11-20T16:09:07;23.30;59.90
75615;DHT22;64199;48.578;-4.520;2022-11-20T16:11:33;23.30;59.90
75615;DHT22;64199;48.578;-4.520;2022-11-20T16:14:00;23.30;59.80
75615;DHT22;64199;48.578;-4.520;2022-11-20T16:16:45;23.40;59.80
75615;DHT22;64199;48.578;-4.520;2022-11-20T16:19:11;23.40;59.80
75615;DHT22;64199;48.578;-4.520;2022-11-20T16:21:37;23.50;59.90
75615;DHT22;64199;48.578;-4.520;2022-11-20T16:24:06;23.40;59.80
75615;DHT22;64199;48.578;-4.520;2022-11-20T16:26:33;23.50;59.90
75615;DHT22;64199;48.578;-4.520;2022-11-20T16:29:00;23.50;59.80
75615;DHT22;64199;48.578;-4.520;2022-11-20T16:31:26;23.60;59.80
75615;DHT22;64199;48.578;-4.520;2022-11-20T16:33:56;23.60;59.70
75615;DHT22;64199;48.578;-4.520;2022-11-20T16:36:25;23.60;59.70